Time;durP1;ratioP1;P1;durP2;ratioP2;P2;SDS_P1;SDS_P2;PMS_P1;PMS_P2;Temp;Humidity;BMP_temperature;BMP_pressure;BME280_temperature;BME280_humidity;BME280_pressure;Samples;Min_cycle;Max_cycle;Signal;HPM_P1;HPM_P2
2023/10/07 00:01:45;;;;;;;4.27;3.10;;;17.00;99.90;;;;;;5225685;28;20210;-50
2023/10/07 00:04:17;;;;;;;8.00;2.80;;;17.00;99.90;;;;;;5208596;28;20421;-50
2023/10/07 00:06:49;;;;;;;4.87;3.23;;;17.00;99.90;;;;;;5228461;28;20643;-51
2023/10/07 00:09:22;;;;;;;4.27;3.17;;;17.10;99.90;;;;;;5225685;28;20429;-51
2023/10/07 00:11:54;;;;;;;7.23;3.00;;;17.10;99.90;;;;;;5207653;28;21024;-51
2023/10/07 00:14:29;;;;;;;4.03;3.30;;;17.00;99.90;;;;;;5203011;28;20445;-51
2023/10/07 00:17:05;;;;;;;3.57;2.40;;;17.00;99.90;;;;;;5222273;28;20460;-49
2023/10/07 00:19:39;;;;;;;3.13;2.47;;;17.10;99.90;;;;;;5209141;28;20432;-50
2023/10/07 00:22:13;;;;;;;3.10;2.90;;;17.20;99.90;;;;;;5222686;28;20863;-50
2023/10/07 00:24:45;;;;;;;4.53;2.93;;;17.20;99.90;;;;;;5200525;28;20438;-50
2023/10/07 00:27:26;;;;;;;4.13;2.63;;;17.20;99.90;;;;;;5206310;28;20445;-51
2023/10/07 00:30:00;;;;;;;3.10;2.80;;;17.20;99.90;;;;;;5208621;28;20441;-49
2023/10/07 00:32:32;;;;;;;5.13;3.00;;;17.10;99.90;;;;;;5209689;28;20476;-51
2023/10/07 00:35:06;;;;;;;13.93;3.20;;;17.20;99.90;;;;;;5202227;28;20471;-50
2023/10/07 00:37:38;;;;;;;3.77;2.57;;;17.20;99.90;;;;;;5206883;28;20461;-50
2023/10/07 00:40:24;;;;;;;6.10;3.50;;;17.30;99.90;;;;;;5224875;28;20526;-50
2023/10/07 00:42:55;;;;;;;4.50;2.70;;;17.20;99.90;;;;;;5220820;28;20810;-51
2023/10/07 00:45:26;;;;;;;8.20;2.60;;;17.30;99.90;;;;;;5206167;28;20438;-51
2023/10/07 00:48:02;;;;;;;7.27;3.20;;;17.20;99.90;;;;;;5220446;28;20193;-51
2023/10/07 00:50:34;;;;;;;7.70;3.30;;;17.20;99.90;;;;;;5207718;28;20441;-51
2023/10/07 00:53:08;;;;;;;6.93;3.53;;;17.20;99.90;;;;;;5207775;28;20470;-50
2023/10/07 00:55:41;;;;;;;3.90;3.37;;;17.20;99.90;;;;;;5192935;28;20440;-51
2023/10/07 00:58:26;;;;;;;6.20;3.10;;;17.20;99.90;;;;;;5221395;28;20824;-51
2023/10/07 01:00:57;;;;;;;3.43;3.13;;;17.20;99.90;;;;;;5223489;28;21033;-50
2023/10/07 01:08:38;;;;;;;3.20;2.87;;;17.20;99.90;;;;;;5219895;28;20184;-52
2023/10/07 01:13:56;;;;;;;5.57;2.90;;;17.20;99.90;;;;;;5221094;28;20417;-51
2023/10/07 01:16:32;;;;;;;5.40;3.13;;;17.20;99.90;;;;;;5222929;28;20430;-50
2023/10/07 01:22:15;;;;;;;4.33;2.93;;;17.20;99.90;;;;;;5214005;28;20461;-51
2023/10/07 01:24:45;;;;;;;4.87;3.40;;;17.30;99.90;;;;;;5218148;28;20487;-51
2023/10/07 01:30:30;;;;;;;5.47;3.17;;;17.20;99.90;;;;;;5215870;28;20941;-50
2023/10/07 01:33:04;;;;;;;5.80;3.03;;;17.10;99.90;;;;;;5214001;28;20461;-50
2023/10/07 01:35:39;;;;;;;9.10;3.03;;;17.20;99.90;;;;;;5203663;28;20477;-49
2023/10/07 01:38:17;;;;;;;5.20;2.60;;;17.20;99.90;;;;;;5219612;28;20460;-51
2023/10/07 01:43:21;;;;;;;5.37;3.10;;;17.20;99.90;;;;;;5218416;28;20869;-50
2023/10/07 01:45:53;;;;;;;4.80;2.87;;;17.20;99.90;;;;;;5220507;28;20486;-50
2023/10/07 01:48:25;;;;;;;8.03;3.00;;;17.10;99.90;;;;;;5203045;28;20184;-50
2023/10/07 01:50:57;;;;;;;5.93;3.40;;;17.10;99.90;;;;;;5221363;28;20445;-51
2023/10/07 01:53:27;;;;;;;7.90;3.10;;;17.20;99.90;;;;;;5217943;28;20517;-50
2023/10/07 01:56:04;;;;;;;7.13;3.17;;;17.20;99.90;;;;;;5223304;28;20461;-50
2023/10/07 01:58:35;;;;;;;10.43;3.80;;;17.20;99.90;;;;;;5221351;28;20207;-50
2023/10/07 02:01:06;;;;;;;8.00;2.63;;;17.30;99.90;;;;;;5216035;28;20436;-51
2023/10/07 02:03:36;;;;;;;13.60;3.23;;;17.20;99.90;;;;;;5215843;28;20218;-50
2023/10/07 02:06:08;;;;;;;2.67;2.47;;;17.20;99.90;;;;;;5217947;28;20215;-50
2023/10/07 02:08:39;;;;;;;6.73;2.73;;;17.20;99.90;;;;;;5206892;28;20241;-51
2023/10/07 02:11:09;;;;;;;7.70;3.47;;;17.20;99.90;;;;;;5217344;28;20427;-50
2023/10/07 02:13:40;;;;;;;10.70;3.60;;;17.20;99.90;;;;;;5218448;28;20215;-50
2023/10/07 02:16:11;;;;;;;6.20;2.87;;;17.20;99.90;;;;;;5217124;28;20195;-50
2023/10/07 02:18:44;;;;;;;4.70;2.93;;;17.20;99.90;;;;;;5217488;28;20218;-50
2023/10/07 02:21:22;;;;;;;7.43;3.40;;;17.20;99.90;;;;;;5203624;28;20434;-50
2023/10/07 02:23:53;;;;;;;9.50;3.73;;;17.20;99.90;;;;;;5197549;28;20430;-51
2023/10/07 02:26:25;;;;;;;3.40;3.20;;;17.30;99.90;;;;;;5201292;28;20434;-56
2023/10/07 02:29:04;;;;;;;4.20;3.30;;;17.30;99.90;;;;;;5205299;28;20639;-51
2023/10/07 02:31:41;;;;;;;7.87;3.60;;;17.20;99.90;;;;;;5216649;28;20468;-51
2023/10/07 02:34:29;;;;;;;4.50;2.90;;;17.20;99.90;;;;;;5204136;28;20844;-50
2023/10/07 02:37:13;;;;;;;9.90;3.40;;;17.20;99.90;;;;;;5204125;28;20473;-50
2023/10/07 02:39:46;;;;;;;19.77;3.57;;;17.20;99.90;;;;;;5218852;28;20437;-50
2023/10/07 02:42:21;;;;;;;9.57;3.37;;;17.20;99.90;;;;;;5222539;28;20963;-51
2023/10/07 02:45:01;;;;;;;7.20;3.80;;;17.20;99.90;;;;;;5219030;28;20437;-50
2023/10/07 02:47:32;;;;;;;3.90;3.40;;;17.20;99.90;;;;;;5218440;28;20449;-51
2023/10/07 02:50:07;;;;;;;10.50;3.10;;;17.20;99.90;;;;;;5208993;28;20443;-50
2023/10/07 02:52:39;;;;;;;7.23;4.00;;;17.10;99.90;;;;;;5212895;28;20543;-49
2023/10/07 02:57:55;;;;;;;6.00;3.60;;;17.20;99.90;;;;;;5221601;28;20864;-50
2023/10/07 03:00:29;;;;;;;3.80;2.90;;;17.20;99.90;;;;;;5205545;28;20474;-49
2023/10/07 03:06:06;;;;;;;5.50;3.10;;;17.10;99.90;;;;;;5285584;27;20551;-49
2023/10/07 03:11:23;;;;;;;5.70;3.00;;;17.00;99.90;;;;;;5286366;28;20414;-52
2023/10/07 03:13:57;;;;;;;4.57;3.27;;;17.00;99.90;;;;;;5282509;28;20430;-50
2023/10/07 03:16:28;;;;;;;6.90;3.73;;;16.90;99.90;;;;;;5286345;28;20429;-51
2023/10/07 03:24:12;;;;;;;4.03;3.70;;;16.90;99.90;;;;;;5280001;28;20498;-50
2023/10/07 03:26:45;;;;;;;8.23;3.90;;;16.90;99.90;;;;;;5283427;28;20451;-50
2023/10/07 03:29:30;;;;;;;3.17;2.97;;;17.00;99.90;;;;;;5284610;28;20422;-51
2023/10/07 03:32:01;;;;;;;7.40;3.73;;;17.00;99.90;;;;;;5282593;28;20446;-51
2023/10/07 03:34:31;;;;;;;3.50;3.07;;;17.10;99.90;;;;;;5281618;28;20474;-50
2023/10/07 03:39:56;;;;;;;5.93;3.40;;;17.10;99.90;;;;;;5283535;28;20267;-50
2023/10/07 03:42:26;;;;;;;5.70;4.00;;;17.10;99.90;;;;;;5278437;28;20466;-51
2023/10/07 03:44:57;;;;;;;4.67;4.27;;;17.10;99.90;;;;;;5276556;28;20522;-51
2023/10/07 03:47:32;;;;;;;19.33;3.60;;;17.10;99.90;;;;;;5281225;28;20191;-51
2023/10/07 03:50:20;;;;;;;9.90;3.77;;;17.10;99.90;;;;;;5276911;28;20189;-50
2023/10/07 03:52:50;;;;;;;9.73;3.43;;;17.20;99.90;;;;;;5276123;28;20840;-52
2023/10/07 03:55:22;;;;;;;3.37;3.17;;;17.10;99.90;;;;;;5273629;28;20439;-51
2023/10/07 03:57:54;;;;;;;3.50;3.17;;;17.10;99.90;;;;;;5281445;28;20192;-52
2023/10/07 04:00:30;;;;;;;5.27;2.97;;;17.10;99.90;;;;;;5279637;28;20437;-50
2023/10/07 04:03:07;;;;;;;9.93;3.60;;;17.10;99.90;;;;;;5275178;28;20508;-52
2023/10/07 04:05:42;;;;;;;9.00;3.70;;;17.10;99.90;;;;;;5277713;28;20478;-50
2023/10/07 04:08:13;;;;;;;7.33;3.73;;;17.10;99.90;;;;;;5285884;28;20426;-52
2023/10/07 04:10:47;;;;;;;5.30;3.60;;;17.00;99.90;;;;;;5280003;28;20488;-49
2023/10/07 04:13:24;;;;;;;6.67;3.70;;;17.00;99.90;;;;;;5276435;28;20466;-50
2023/10/07 04:15:57;;;;;;;6.57;4.20;;;17.10;99.90;;;;;;5269489;28;20455;-50
2023/10/07 04:18:36;;;;;;;6.13;2.80;;;17.00;99.90;;;;;;5264182;28;20803;-50
2023/10/07 04:21:07;;;;;;;6.30;3.50;;;17.00;99.90;;;;;;5260009;28;20431;-51
2023/10/07 04:23:43;;;;;;;7.57;3.20;;;17.10;99.90;;;;;;5262061;28;20447;-51
2023/10/07 04:26:19;;;;;;;3.20;2.90;;;17.00;99.90;;;;;;5267115;28;20589;-50
2023/10/07 04:28:53;;;;;;;3.40;3.10;;;17.00;99.90;;;;;;5262971;28;20810;-51
2023/10/07 04:31:29;;;;;;;4.73;3.50;;;17.00;99.90;;;;;;5252779;28;20523;-51
2023/10/07 04:34:02;;;;;;;6.27;3.83;;;17.00;99.90;;;;;;5255514;28;20439;-50
2023/10/07 04:36:33;;;;;;;5.83;3.80;;;17.00;99.90;;;;;;5260891;28;20459;-50
2023/10/07 04:39:15;;;;;;;4.87;2.57;;;17.00;99.90;;;;;;5261727;28;20515;-52
2023/10/07 04:41:56;;;;;;;6.50;3.50;;;17.00;99.90;;;;;;5262653;28;20483;-50
2023/10/07 04:45:16;;;;;;;4.00;3.13;;;17.00;99.90;;;;;;5260787;28;20467;-51
2023/10/07 04:50:33;;;;;;;3.23;3.03;;;17.00;99.90;;;;;;5271384;28;20428;-51
2023/10/07 04:53:05;;;;;;;5.67;3.70;;;17.00;99.90;;;;;;5262532;28;20447;-50
2023/10/07 04:55:39;;;;;;;3.63;3.43;;;17.00;99.90;;;;;;5257430;28;20436;-50
2023/10/07 04:58:12;;;;;;;6.47;3.90;;;17.00;99.90;;;;;;5264293;28;20472;-50
2023/10/07 05:00:47;;;;;;;9.80;2.97;;;17.00;99.90;;;;;;5260176;28;20471;-50
2023/10/07 05:03:19;;;;;;;6.77;3.70;;;17.00;99.90;;;;;;5264562;28;20541;-50
2023/10/07 05:05:50;;;;;;;4.27;3.70;;;16.90;99.90;;;;;;5260448;28;21276;-51
2023/10/07 05:08:22;;;;;;;3.30;3.00;;;16.90;99.90;;;;;;5262620;28;20459;-49
2023/10/07 05:10:53;;;;;;;6.00;3.60;;;16.90;99.90;;;;;;5262012;28;20485;-50
2023/10/07 05:13:24;;;;;;;6.23;3.50;;;16.90;99.90;;;;;;5263840;28;20451;-50
2023/10/07 05:15:55;;;;;;;4.37;3.20;;;16.90;99.90;;;;;;5262543;28;20461;-50
2023/10/07 05:18:26;;;;;;;5.37;3.13;;;16.80;99.90;;;;;;5263836;28;20440;-50
2023/10/07 05:20:57;;;;;;;4.47;3.40;;;16.80;99.90;;;;;;5264071;28;20273;-50
2023/10/07 05:23:28;;;;;;;5.70;3.60;;;16.80;99.90;;;;;;5262192;28;20194;-50
2023/10/07 05:26:03;;;;;;;5.37;3.20;;;16.80;99.90;;;;;;5263616;28;20832;-50
2023/10/07 05:28:34;;;;;;;5.30;3.30;;;16.80;99.90;;;;;;5264159;28;20173;-50
2023/10/07 05:31:05;;;;;;;6.87;4.33;;;16.80;99.90;;;;;;5264142;28;20511;-50
2023/10/07 05:33:35;;;;;;;3.97;3.03;;;16.80;99.90;;;;;;5262538;28;20509;-49
2023/10/07 05:36:14;;;;;;;4.93;3.40;;;16.80;99.90;;;;;;5265652;28;20272;-51
2023/10/07 05:38:45;;;;;;;6.23;3.50;;;16.80;99.90;;;;;;5263951;28;20181;-51
2023/10/07 05:41:16;;;;;;;3.60;3.40;;;16.90;99.90;;;;;;5262736;28;20442;-51
2023/10/07 05:43:51;;;;;;;4.67;3.30;;;16.80;99.90;;;;;;5260153;28;20439;-51
2023/10/07 05:46:22;;;;;;;11.33;3.67;;;16.80;99.90;;;;;;5266096;28;20188;-51
2023/10/07 05:48:54;;;;;;;9.17;3.37;;;16.80;99.90;;;;;;5264983;28;20806;-50
2023/10/07 05:51:25;;;;;;;5.50;3.33;;;16.90;99.90;;;;;;5264510;28;20431;-52
2023/10/07 05:53:57;;;;;;;6.53;3.60;;;16.90;99.90;;;;;;5257593;28;20947;-50
2023/10/07 05:56:28;;;;;;;6.83;4.17;;;16.90;99.90;;;;;;5266226;28;20443;-51
2023/10/07 05:58:58;;;;;;;4.60;2.97;;;17.00;99.90;;;;;;5265789;28;20862;-50
2023/10/07 06:01:33;;;;;;;5.07;3.40;;;16.90;99.90;;;;;;5258066;28;20474;-50
2023/10/07 06:04:04;;;;;;;3.73;3.40;;;16.90;99.90;;;;;;5265142;28;20216;-49
2023/10/07 06:06:35;;;;;;;3.30;3.03;;;17.00;99.90;;;;;;5264916;28;20943;-49
2023/10/07 06:09:10;;;;;;;7.50;3.00;;;17.00;99.90;;;;;;5256832;28;20178;-51
2023/10/07 06:11:44;;;;;;;5.83;2.90;;;17.00;99.90;;;;;;5247831;28;20455;-51
2023/10/07 06:14:18;;;;;;;6.70;3.60;;;17.00;99.90;;;;;;5258075;28;20535;-50
2023/10/07 06:16:52;;;;;;;27.43;5.30;;;16.90;99.90;;;;;;5259928;28;20428;-50
2023/10/07 06:19:23;;;;;;;7.20;4.10;;;16.90;99.90;;;;;;5259372;28;20435;-50
2023/10/07 06:21:56;;;;;;;7.60;3.83;;;16.80;99.90;;;;;;5258570;28;20481;-50
2023/10/07 06:24:28;;;;;;;9.50;3.63;;;16.70;99.90;;;;;;5265574;28;20826;-50
2023/10/07 06:26:58;;;;;;;7.47;3.90;;;16.80;99.90;;;;;;5260974;28;20419;-49
2023/10/07 06:29:32;;;;;;;10.80;4.03;;;16.80;99.90;;;;;;5258582;28;20429;-50
2023/10/07 06:32:43;;;;;;;3.90;3.47;;;16.70;99.90;;;;;;5254197;28;20250;-50
2023/10/07 06:34:59;;;;;;;4.57;4.17;;;16.70;99.90;;;;;;5262688;28;20996;-50
2023/10/07 06:37:30;;;;;;;5.77;3.63;;;16.70;99.90;;;;;;5264986;28;20439;-50
2023/10/07 06:40:13;;;;;;;4.83;3.60;;;16.70;99.90;;;;;;5265870;28;20188;-51
2023/10/07 06:42:44;;;;;;;7.43;3.60;;;16.70;99.90;;;;;;5266620;28;20565;-50
2023/10/07 06:45:17;;;;;;;5.17;3.90;;;16.70;99.90;;;;;;5255366;28;21057;-50
2023/10/07 06:47:48;;;;;;;5.07;3.87;;;16.80;99.90;;;;;;5265289;28;20498;-50
2023/10/07 06:50:27;;;;;;;5.30;4.57;;;16.80;99.90;;;;;;5267993;28;20775;-50
2023/10/07 06:52:57;;;;;;;4.23;3.63;;;16.80;99.90;;;;;;5265490;28;20455;-50
2023/10/07 06:55:33;;;;;;;5.70;4.30;;;16.70;99.90;;;;;;5262867;28;20442;-49
2023/10/07 06:58:04;;;;;;;3.87;3.53;;;16.80;99.90;;;;;;5262881;28;20641;-50
2023/10/07 07:00:47;;;;;;;3.60;3.33;;;16.90;99.90;;;;;;5260171;28;20639;-51
2023/10/07 07:03:18;;;;;;;10.60;4.50;;;16.80;99.90;;;;;;5265459;28;20658;-50
2023/10/07 07:05:48;;;;;;;13.03;4.67;;;16.80;99.90;;;;;;5267818;28;20466;-51
2023/10/07 07:08:22;;;;;;;4.43;4.03;;;16.80;99.90;;;;;;5266087;28;20173;-51
2023/10/07 07:10:56;;;;;;;7.73;3.40;;;16.90;99.90;;;;;;5263133;28;20225;-51
2023/10/07 07:13:27;;;;;;;5.00;3.70;;;17.00;99.90;;;;;;5260446;28;20449;-50
2023/10/07 07:16:06;;;;;;;5.87;3.83;;;17.00;99.90;;;;;;5265985;28;20435;-50
2023/10/07 07:18:40;;;;;;;7.93;4.40;;;16.90;99.90;;;;;;5259341;28;20443;-49
2023/10/07 07:21:31;;;;;;;8.27;4.17;;;17.00;99.90;;;;;;5258814;28;20614;-49
2023/10/07 07:24:03;;;;;;;4.30;3.90;;;16.90;99.90;;;;;;5262584;28;20475;-50
2023/10/07 07:26:34;;;;;;;6.90;4.27;;;17.00;99.90;;;;;;5263699;28;20430;-51
2023/10/07 07:29:05;;;;;;;7.47;4.17;;;17.00;99.90;;;;;;5263151;28;20451;-50
2023/10/07 07:31:36;;;;;;;5.13;3.93;;;17.10;99.90;;;;;;5263867;28;20448;-50
2023/10/07 07:34:19;;;;;;;11.00;4.27;;;17.10;99.90;;;;;;5246981;28;20290;-52
2023/10/07 07:36:56;;;;;;;9.53;4.00;;;17.20;99.90;;;;;;5243960;28;20263;-50
2023/10/07 07:39:30;;;;;;;4.00;2.90;;;17.30;99.90;;;;;;5227279;28;20499;-50
2023/10/07 07:42:22;;;;;;;7.83;4.30;;;17.40;99.90;;;;;;5248559;28;20456;-52
2023/10/07 07:44:56;;;;;;;9.90;4.03;;;17.40;99.90;;;;;;5257096;28;20542;-50
2023/10/07 07:47:31;;;;;;;4.30;3.63;;;17.30;99.90;;;;;;5252838;28;20432;-50
2023/10/07 07:50:01;;;;;;;6.67;4.27;;;17.30;99.90;;;;;;5254509;28;20493;-50
2023/10/07 07:52:32;;;;;;;9.90;4.10;;;17.20;99.90;;;;;;5256504;28;21055;-50
2023/10/07 07:55:03;;;;;;;6.83;4.00;;;17.20;99.90;;;;;;5262662;28;20287;-50
2023/10/07 07:57:34;;;;;;;3.37;3.07;;;17.20;99.90;;;;;;5257201;28;20668;-50
2023/10/07 08:00:09;;;;;;;6.83;4.07;;;17.30;99.90;;;;;;5254702;28;20462;-50
2023/10/07 08:02:41;;;;;;;3.93;3.30;;;17.30;99.90;;;;;;5263599;28;20471;-49
2023/10/07 08:05:15;;;;;;;8.27;3.30;;;17.40;99.90;;;;;;5262816;28;21116;-49
2023/10/07 08:07:51;;;;;;;5.40;4.20;;;17.50;99.90;;;;;;5258776;28;20835;-50
2023/10/07 08:10:22;;;;;;;3.70;3.17;;;17.60;99.90;;;;;;5253754;28;20435;-49
2023/10/07 08:12:53;;;;;;;4.30;3.70;;;17.60;99.90;;;;;;5256387;28;20463;-49
2023/10/07 08:15:24;;;;;;;5.70;3.30;;;17.60;99.90;;;;;;5256040;28;20439;-48
2023/10/07 08:17:56;;;;;;;3.97;3.40;;;17.60;99.90;;;;;;5259237;28;20185;-53
2023/10/07 08:20:37;;;;;;;4.43;3.30;;;17.50;99.90;;;;;;5257563;28;20235;-50
2023/10/07 08:23:08;;;;;;;3.03;2.83;;;17.50;99.90;;;;;;5265853;28;20459;-48
2023/10/07 08:25:45;;;;;;;3.90;2.80;;;17.50;99.90;;;;;;5252500;28;20471;-53
2023/10/07 08:28:19;;;;;;;2.97;2.77;;;17.50;99.90;;;;;;5261458;28;20178;-50
2023/10/07 08:30:51;;;;;;;10.53;3.17;;;17.40;99.90;;;;;;5250485;28;20477;-50
2023/10/07 08:33:22;;;;;;;3.70;3.40;;;17.40;99.90;;;;;;5255034;28;20454;-50
2023/10/07 08:35:55;;;;;;;6.60;3.10;;;17.30;99.90;;;;;;5256843;28;20429;-50
2023/10/07 08:38:59;;;;;;;5.50;3.27;;;17.30;99.90;;;;;;5258545;28;20444;-48
2023/10/07 08:41:26;;;;;;;6.20;3.73;;;17.20;99.90;;;;;;5261949;28;21980;-52
2023/10/07 08:44:18;;;;;;;3.27;2.87;;;17.20;99.90;;;;;;5262172;28;20439;-49
2023/10/07 08:46:49;;;;;;;4.30;3.63;;;17.10;99.90;;;;;;5265826;28;20455;-49
2023/10/07 08:49:26;;;;;;;6.90;3.23;;;17.10;99.90;;;;;;5267877;28;21013;-51
2023/10/07 08:51:57;;;;;;;3.63;3.50;;;17.20;99.90;;;;;;5263089;28;20209;-49
2023/10/07 08:54:37;;;;;;;4.23;3.50;;;17.20;99.90;;;;;;5266677;28;20557;-50
2023/10/07 08:57:15;;;;;;;6.63;3.40;;;17.30;99.90;;;;;;5264275;28;20182;-54
2023/10/07 08:59:52;;;;;;;4.00;3.47;;;17.30;99.90;;;;;;5254795;27;20435;-49
2023/10/07 09:02:30;;;;;;;3.63;3.33;;;17.40;99.90;;;;;;5253542;28;20534;-51
2023/10/07 09:05:16;;;;;;;4.30;4.00;;;17.40;99.90;;;;;;5244168;28;20477;-53
2023/10/07 09:07:50;;;;;;;3.60;3.30;;;17.40;99.90;;;;;;5262081;28;20436;-49
2023/10/07 09:10:27;;;;;;;3.40;3.13;;;17.40;99.90;;;;;;5257499;28;20428;-50
2023/10/07 09:13:04;;;;;;;3.93;3.33;;;17.40;99.90;;;;;;5253428;28;20460;-49
2023/10/07 09:15:36;;;;;;;3.47;3.27;;;17.50;99.90;;;;;;5261791;28;20440;-50
2023/10/07 09:18:10;;;;;;;9.23;3.50;;;17.40;99.90;;;;;;5254714;28;20849;-52
2023/10/07 09:20:45;;;;;;;7.47;3.20;;;17.40;99.90;;;;;;5257773;28;20432;-51
2023/10/07 09:23:19;;;;;;;6.13;3.53;;;17.30;99.90;;;;;;5260129;28;20466;-52
2023/10/07 09:25:52;;;;;;;4.57;3.87;;;17.40;99.90;;;;;;5266518;28;20470;-51
2023/10/07 09:28:29;;;;;;;4.07;3.73;;;17.40;99.90;;;;;;5271130;28;20471;-52
2023/10/07 09:31:05;;;;;;;8.33;4.37;;;17.40;99.90;;;;;;5256568;28;20455;-49
2023/10/07 09:33:37;;;;;;;7.53;4.17;;;17.40;99.90;;;;;;5261310;28;21055;-50
2023/10/07 09:39:13;;;;;;;7.80;4.50;;;17.50;99.90;;;;;;5256003;28;20431;-51
2023/10/07 09:41:46;;;;;;;4.20;3.80;;;17.40;99.90;;;;;;5255251;28;20464;-53
2023/10/07 09:44:26;;;;;;;6.40;4.53;;;17.50;99.90;;;;;;5263530;28;20459;-51
2023/10/07 09:47:03;;;;;;;6.97;4.70;;;17.50;99.90;;;;;;5258549;28;20531;-53
2023/10/07 09:49:36;;;;;;;10.33;5.27;;;17.50;99.90;;;;;;5247505;28;21026;-50
2023/10/07 09:52:28;;;;;;;5.80;5.17;;;17.50;99.90;;;;;;5255559;28;20464;-50
2023/10/07 09:55:31;;;;;;;6.43;5.00;;;17.50;99.90;;;;;;5253454;28;20451;-51
2023/10/07 09:58:36;;;;;;;5.00;4.60;;;17.50;99.90;;;;;;5257276;28;20790;-50
2023/10/07 10:01:29;;;;;;;6.43;4.40;;;17.50;99.90;;;;;;5253789;28;20440;-50
2023/10/07 10:04:21;;;;;;;5.33;4.37;;;17.40;99.90;;;;;;5255561;28;20444;-50
2023/10/07 10:07:33;;;;;;;9.00;5.20;;;17.50;99.90;;;;;;5260701;28;20774;-50
2023/10/07 10:10:16;;;;;;;5.70;4.63;;;17.40;99.90;;;;;;5260617;28;20532;-51
2023/10/07 10:13:06;;;;;;;10.33;5.93;;;17.40;99.90;;;;;;5254223;28;20460;-50
2023/10/07 10:21:04;;;;;;;8.50;6.37;;;17.40;99.90;;;;;;5256820;28;20424;-50
2023/10/07 10:23:38;;;;;;;11.07;6.30;;;17.30;99.90;;;;;;5259919;28;20460;-50
2023/10/07 10:26:24;;;;;;;6.70;5.87;;;17.30;99.90;;;;;;5263638;28;20467;-51
2023/10/07 10:29:00;;;;;;;9.63;6.63;;;17.30;99.90;;;;;;5264915;28;20799;-49
2023/10/07 10:31:32;;;;;;;13.83;6.90;;;17.30;99.90;;;;;;5265142;28;20466;-51
2023/10/07 10:34:08;;;;;;;11.83;7.50;;;17.40;99.90;;;;;;5259109;28;20569;-50
2023/10/07 10:37:05;;;;;;;8.70;7.50;;;17.40;99.90;;;;;;5254322;28;20474;-53
2023/10/07 10:39:33;;;;;;;8.43;7.63;;;17.30;99.90;;;;;;5259496;28;20420;-51
2023/10/07 10:42:09;;;;;;;10.17;7.90;;;17.30;99.90;;;;;;5259917;28;20535;-52
2023/10/07 10:44:46;;;;;;;8.80;6.77;;;17.40;99.90;;;;;;5262637;28;20463;-51
2023/10/07 10:47:18;;;;;;;11.57;7.50;;;17.30;99.90;;;;;;5247756;28;21073;-49
2023/10/07 10:49:54;;;;;;;8.77;7.80;;;17.20;99.90;;;;;;5254833;28;20424;-49
2023/10/07 10:52:26;;;;;;;12.87;8.30;;;17.30;99.90;;;;;;5258150;28;20525;-52
2023/10/07 10:55:00;;;;;;;14.47;9.63;;;17.20;99.90;;;;;;5263088;28;20951;-49
2023/10/07 10:57:30;;;;;;;12.20;8.57;;;17.20;99.90;;;;;;5264948;28;20938;-50
2023/10/07 11:00:11;;;;;;;14.63;9.73;;;17.10;99.90;;;;;;5263966;28;20436;-50
2023/10/07 11:02:42;;;;;;;18.13;10.50;;;17.00;99.90;;;;;;5262745;28;20201;-49
2023/10/07 11:05:13;;;;;;;11.50;8.90;;;17.00;99.90;;;;;;5264944;28;20465;-49
2023/10/07 11:07:49;;;;;;;13.00;10.10;;;17.00;99.90;;;;;;5264087;28;20439;-50
2023/10/07 11:10:22;;;;;;;12.40;9.60;;;16.90;99.90;;;;;;5258599;28;20196;-49
2023/10/07 11:12:56;;;;;;;23.83;10.13;;;17.00;99.90;;;;;;5256148;28;20467;-50
2023/10/07 11:15:27;;;;;;;10.40;9.50;;;17.10;99.90;;;;;;5257000;28;20442;-50
2023/10/07 11:18:14;;;;;;;19.13;9.47;;;17.10;99.90;;;;;;5263290;28;20439;-49
2023/10/07 11:20:45;;;;;;;15.83;10.20;;;17.10;99.90;;;;;;5263069;28;20239;-49
2023/10/07 11:23:16;;;;;;;14.47;9.37;;;17.10;99.90;;;;;;5255120;28;20514;-52
2023/10/07 11:25:46;;;;;;;13.80;10.20;;;17.20;99.90;;;;;;5268405;28;20854;-51
2023/10/07 11:28:22;;;;;;;11.37;8.87;;;17.20;99.90;;;;;;5255651;28;20304;-50
2023/10/07 11:30:54;;;;;;;12.47;9.47;;;17.20;99.90;;;;;;5257824;28;20807;-52
2023/10/07 11:33:25;;;;;;;14.50;11.50;;;17.20;99.90;;;;;;5244900;28;20436;-50
2023/10/07 11:35:59;;;;;;;24.57;13.00;;;17.20;99.90;;;;;;5262829;28;20467;-50
2023/10/07 11:38:30;;;;;;;16.60;12.27;;;17.10;99.90;;;;;;5255885;28;20381;-49
2023/10/07 11:41:04;;;;;;;16.73;12.17;;;17.10;99.90;;;;;;5265425;28;20446;-49
2023/10/07 11:43:47;;;;;;;19.73;13.13;;;17.00;99.90;;;;;;5262936;28;20208;-48
2023/10/07 11:46:19;;;;;;;11.30;10.10;;;16.90;99.90;;;;;;5258765;28;21261;-49
2023/10/07 11:48:50;;;;;;;17.90;10.87;;;16.90;99.90;;;;;;5265118;28;20443;-52
2023/10/07 11:51:23;;;;;;;23.47;12.60;;;16.80;99.90;;;;;;5258600;28;20431;-49
2023/10/07 11:53:55;;;;;;;14.83;10.83;;;16.90;99.90;;;;;;5261389;28;20177;-50
2023/10/07 11:56:27;;;;;;;16.30;12.37;;;16.90;99.90;;;;;;5266913;28;20423;-50
2023/10/07 11:58:58;;;;;;;22.27;15.30;;;17.00;99.90;;;;;;5268357;28;20435;-51
2023/10/07 12:01:28;;;;;;;14.70;12.00;;;17.00;99.90;;;;;;5265674;28;20883;-52
2023/10/07 12:03:59;;;;;;;22.10;12.83;;;17.00;99.90;;;;;;5258926;28;20437;-49
2023/10/07 12:06:31;;;;;;;17.40;14.27;;;17.00;99.90;;;;;;5263360;28;20198;-52
2023/10/07 12:09:06;;;;;;;17.77;11.90;;;17.00;99.90;;;;;;5258867;28;20182;-50
2023/10/07 12:11:37;;;;;;;17.47;12.50;;;16.90;99.90;;;;;;5265332;28;20455;-53
2023/10/07 12:14:08;;;;;;;18.80;13.43;;;16.90;99.90;;;;;;5263696;28;20561;-51
2023/10/07 12:16:43;;;;;;;18.00;12.37;;;16.80;99.90;;;;;;5264584;28;20551;-51
2023/10/07 12:19:17;;;;;;;21.13;14.43;;;16.60;99.90;;;;;;5258391;28;20435;-50
2023/10/07 12:21:48;;;;;;;20.37;13.77;;;16.60;99.90;;;;;;5263059;28;20946;-50
2023/10/07 12:24:18;;;;;;;19.90;14.73;;;16.50;99.90;;;;;;5262200;28;20451;-50
2023/10/07 12:26:50;;;;;;;24.73;14.03;;;16.50;99.90;;;;;;5259860;28;20181;-51
2023/10/07 12:29:23;;;;;;;20.20;15.07;;;16.50;99.90;;;;;;5267846;28;20189;-49
2023/10/07 12:31:55;;;;;;;25.90;14.70;;;16.40;99.90;;;;;;5260010;28;20443;-50
2023/10/07 12:34:26;;;;;;;22.40;13.03;;;16.50;99.90;;;;;;5252105;28;20459;-52
2023/10/07 12:36:57;;;;;;;19.50;14.50;;;16.40;99.90;;;;;;5259946;28;20436;-49
2023/10/07 12:39:38;;;;;;;23.40;14.00;;;16.40;99.90;;;;;;5262757;28;20427;-51
2023/10/07 12:42:09;;;;;;;21.93;14.30;;;16.40;99.90;;;;;;5257886;28;20425;-49
2023/10/07 12:44:40;;;;;;;23.83;14.73;;;16.40;99.90;;;;;;5266717;28;20578;-51
2023/10/07 12:47:11;;;;;;;21.17;13.50;;;16.40;99.90;;;;;;5256139;28;20231;-50
2023/10/07 12:49:45;;;;;;;19.27;13.67;;;16.40;99.90;;;;;;5255554;28;20185;-50
2023/10/07 12:52:16;;;;;;;19.23;13.30;;;16.40;99.90;;;;;;5259089;28;20190;-50
2023/10/07 12:54:46;;;;;;;13.27;11.80;;;16.50;99.90;;;;;;5261812;28;20802;-54
2023/10/07 12:57:17;;;;;;;18.80;13.27;;;16.50;99.90;;;;;;5271503;28;20328;-51
2023/10/07 12:59:52;;;;;;;25.07;13.37;;;16.40;99.90;;;;;;5260607;28;20591;-50
2023/10/07 13:02:23;;;;;;;17.03;11.30;;;16.50;99.90;;;;;;5259413;28;20200;-52
2023/10/07 13:04:55;;;;;;;14.30;11.10;;;16.50;99.90;;;;;;5258124;28;20463;-50
2023/10/07 13:07:28;;;;;;;14.17;12.03;;;16.50;99.90;;;;;;5259967;28;20431;-53
2023/10/07 13:10:00;;;;;;;25.90;13.50;;;16.50;99.90;;;;;;5259314;28;20623;-53
2023/10/07 13:12:33;;;;;;;16.00;11.40;;;16.50;99.90;;;;;;5257124;28;20467;-48
2023/10/07 13:15:14;;;;;;;13.03;11.40;;;16.60;99.90;;;;;;5254093;28;20448;-52
2023/10/07 13:17:46;;;;;;;18.60;11.47;;;16.60;99.90;;;;;;5263393;28;20455;-51
2023/10/07 13:20:23;;;;;;;15.30;10.67;;;16.60;99.90;;;;;;5262747;28;20554;-50
2023/10/07 13:23:05;;;;;;;15.00;10.53;;;16.60;99.90;;;;;;5261233;28;20497;-49
2023/10/07 13:25:36;;;;;;;18.67;11.63;;;16.60;99.90;;;;;;5249165;28;20455;-50
2023/10/07 13:28:09;;;;;;;10.53;9.50;;;16.70;99.90;;;;;;5262736;28;20456;-51
2023/10/07 13:30:42;;;;;;;15.93;11.23;;;16.80;99.90;;;;;;5263157;28;20435;-50
2023/10/07 13:33:13;;;;;;;17.03;13.10;;;16.80;99.90;;;;;;5265085;28;20491;-50
2023/10/07 13:35:45;;;;;;;16.60;10.27;;;16.90;99.90;;;;;;5264912;28;20434;-51
2023/10/07 13:38:16;;;;;;;13.20;9.77;;;16.90;99.90;;;;;;5259915;28;20459;-48
2023/10/07 13:40:47;;;;;;;15.80;10.90;;;16.90;99.90;;;;;;5263675;28;20425;-49
2023/10/07 13:43:17;;;;;;;25.83;10.30;;;17.00;99.90;;;;;;5259357;28;20206;-49
2023/10/07 13:45:48;;;;;;;19.27;9.73;;;17.00;99.90;;;;;;5266424;28;20341;-50
2023/10/07 13:48:19;;;;;;;14.93;8.93;;;17.10;99.90;;;;;;5258170;28;20332;-51
2023/10/07 13:50:51;;;;;;;17.03;9.53;;;17.10;99.90;;;;;;5259618;28;20225;-49
2023/10/07 13:53:40;;;;;;;21.10;11.10;;;17.20;99.90;;;;;;5265573;28;20486;-51
2023/10/07 13:56:12;;;;;;;12.83;9.07;;;17.20;99.90;;;;;;5261815;28;20442;-48
2023/10/07 13:58:43;;;;;;;14.73;8.90;;;17.30;99.90;;;;;;5262249;28;20512;-51
2023/10/07 14:01:15;;;;;;;14.77;10.50;;;17.30;99.90;;;;;;5244761;28;20467;-49
2023/10/07 14:03:45;;;;;;;16.30;9.77;;;17.30;99.90;;;;;;5260028;28;20180;-52